sensor_id;sensor_type;location;lat;lon;timestamp;P1;durP1;ratioP1;P2;durP2;ratioP2
74624;SDS011;63131;52.298;8.056;2022-12-16T00:00:13;28.67;;;12.95;;
74624;SDS011;63131;52.298;8.056;2022-12-16T00:02:40;23.60;;;13.23;;
74624;SDS011;63131;52.298;8.056;2022-12-16T00:05:05;28.13;;;12.23;;
74624;SDS011;63131;52.298;8.056;2022-12-16T00:07:31;26.73;;;13.05;;
74624;SDS011;63131;52.298;8.056;2022-12-16T00:09:56;22.10;;;11.05;;
74624;SDS011;63131;52.298;8.056;2022-12-16T00:12:22;27.58;;;13.48;;
74624;SDS011;63131;52.298;8.056;2022-12-16T00:14:47;25.90;;;13.13;;
74624;SDS011;63131;52.298;8.056;2022-12-16T00:17:12;26.95;;;12.55;;
74624;SDS011;63131;52.298;8.056;2022-12-16T00:19:38;23.00;;;12.90;;
74624;SDS011;63131;52.298;8.056;2022-12-16T00:22:03;24.73;;;13.48;;
74624;SDS011;63131;52.298;8.056;2022-12-16T00:24:28;22.90;;;11.82;;
74624;SDS011;63131;52.298;8.056;2022-12-16T00:26:55;22.85;;;11.43;;
74624;SDS011;63131;52.298;8.056;2022-12-16T00:29:21;22.92;;;12.25;;
74624;SDS011;63131;52.298;8.056;2022-12-16T00:31:46;25.48;;;12.50;;
74624;SDS011;63131;52.298;8.056;2022-12-16T00:34:12;23.10;;;12.77;;
74624;SDS011;63131;52.298;8.056;2022-12-16T00:36:38;24.45;;;12.52;;
74624;SDS011;63131;52.298;8.056;2022-12-16T00:39:03;23.45;;;11.30;;
74624;SDS011;63131;52.298;8.056;2022-12-16T00:41:29;22.23;;;12.07;;
74624;SDS011;63131;52.298;8.056;2022-12-16T00:43:54;24.85;;;12.57;;
74624;SDS011;63131;52.298;8.056;2022-12-16T00:46:19;23.55;;;12.10;;
74624;SDS011;63131;52.298;8.056;2022-12-16T00:48:44;21.38;;;10.98;;
74624;SDS011;63131;52.298;8.056;2022-12-16T00:51:10;22.15;;;11.00;;
74624;SDS011;63131;52.298;8.056;2022-12-16T00:53:35;24.95;;;10.35;;
74624;SDS011;63131;52.298;8.056;2022-12-16T00:56:08;23.50;;;10.55;;
74624;SDS011;63131;52.298;8.056;2022-12-16T00:58:36;18.85;;;10.48;;
74624;SDS011;63131;52.298;8.056;2022-12-16T01:01:02;20.85;;;10.43;;
74624;SDS011;63131;52.298;8.056;2022-12-16T01:03:28;23.20;;;11.45;;
74624;SDS011;63131;52.298;8.056;2022-12-16T01:05:53;23.17;;;13.05;;
74624;SDS011;63131;52.298;8.056;2022-12-16T01:08:18;26.08;;;12.52;;
74624;SDS011;63131;52.298;8.056;2022-12-16T01:10:51;25.42;;;12.15;;
74624;SDS011;63131;52.298;8.056;2022-12-16T01:13:20;21.95;;;11.88;;
74624;SDS011;63131;52.298;8.056;2022-12-16T01:18:12;23.10;;;11.03;;
74624;SDS011;63131;52.298;8.056;2022-12-16T01:20:38;21.90;;;10.93;;
74624;SDS011;63131;52.298;8.056;2022-12-16T01:23:03;23.38;;;11.95;;
74624;SDS011;63131;52.298;8.056;2022-12-16T01:25:29;26.77;;;11.52;;
74624;SDS011;63131;52.298;8.056;2022-12-16T01:27:54;22.67;;;11.63;;
74624;SDS011;63131;52.298;8.056;2022-12-16T01:30:19;23.55;;;11.30;;
74624;SDS011;63131;52.298;8.056;2022-12-16T01:32:45;22.15;;;10.63;;
74624;SDS011;63131;52.298;8.056;2022-12-16T01:35:10;24.63;;;11.90;;
74624;SDS011;63131;52.298;8.056;2022-12-16T01:37:37;25.42;;;11.50;;
74624;SDS011;63131;52.298;8.056;2022-12-16T01:40:02;25.13;;;10.73;;
74624;SDS011;63131;52.298;8.056;2022-12-16T01:42:28;22.48;;;11.07;;
74624;SDS011;63131;52.298;8.056;2022-12-16T01:44:55;25.52;;;11.80;;
74624;SDS011;63131;52.298;8.056;2022-12-16T01:47:27;26.40;;;12.43;;
74624;SDS011;63131;52.298;8.056;2022-12-16T01:50:00;26.08;;;10.98;;
74624;SDS011;63131;52.298;8.056;2022-12-16T01:52:29;27.38;;;11.32;;
74624;SDS011;63131;52.298;8.056;2022-12-16T01:54:59;21.17;;;10.20;;
74624;SDS011;63131;52.298;8.056;2022-12-16T01:57:29;21.15;;;10.52;;
74624;SDS011;63131;52.298;8.056;2022-12-16T01:59:58;21.80;;;10.27;;
74624;SDS011;63131;52.298;8.056;2022-12-16T02:04:51;23.27;;;9.95;;
74624;SDS011;63131;52.298;8.056;2022-12-16T02:07:35;22.23;;;11.20;;
74624;SDS011;63131;52.298;8.056;2022-12-16T02:10:00;25.98;;;10.73;;
74624;SDS011;63131;52.298;8.056;2022-12-16T02:12:28;20.40;;;10.18;;
74624;SDS011;63131;52.298;8.056;2022-12-16T02:15:16;20.35;;;11.15;;
74624;SDS011;63131;52.298;8.056;2022-12-16T02:18:04;22.88;;;11.70;;
74624;SDS011;63131;52.298;8.056;2022-12-16T02:20:46;16.73;;;10.27;;
74624;SDS011;63131;52.298;8.056;2022-12-16T02:32:18;18.80;;;10.38;;
74624;SDS011;63131;52.298;8.056;2022-12-16T02:40:06;21.38;;;10.40;;
74624;SDS011;63131;52.298;8.056;2022-12-16T02:42:50;20.40;;;10.10;;
74624;SDS011;63131;52.298;8.056;2022-12-16T02:45:20;21.58;;;10.75;;
74624;SDS011;63131;52.298;8.056;2022-12-16T02:47:48;18.73;;;10.32;;
74624;SDS011;63131;52.298;8.056;2022-12-16T02:52:45;25.45;;;10.40;;
74624;SDS011;63131;52.298;8.056;2022-12-16T02:55:11;22.35;;;11.23;;
74624;SDS011;63131;52.298;8.056;2022-12-16T03:00:39;22.20;;;10.82;;
74624;SDS011;63131;52.298;8.056;2022-12-16T03:06:00;22.67;;;11.02;;
74624;SDS011;63131;52.298;8.056;2022-12-16T03:08:29;18.98;;;9.88;;
74624;SDS011;63131;52.298;8.056;2022-12-16T03:11:02;23.23;;;11.30;;
74624;SDS011;63131;52.298;8.056;2022-12-16T03:13:29;22.33;;;10.45;;
74624;SDS011;63131;52.298;8.056;2022-12-16T03:15:57;18.98;;;9.48;;
74624;SDS011;63131;52.298;8.056;2022-12-16T03:18:24;18.58;;;9.95;;
74624;SDS011;63131;52.298;8.056;2022-12-16T03:21:06;22.73;;;10.43;;
74624;SDS011;63131;52.298;8.056;2022-12-16T03:26:14;20.58;;;9.38;;
74624;SDS011;63131;52.298;8.056;2022-12-16T03:28:46;26.02;;;11.20;;
74624;SDS011;63131;52.298;8.056;2022-12-16T03:31:29;22.08;;;9.45;;
74624;SDS011;63131;52.298;8.056;2022-12-16T03:34:34;18.63;;;9.77;;
74624;SDS011;63131;52.298;8.056;2022-12-16T03:37:03;16.33;;;9.00;;
74624;SDS011;63131;52.298;8.056;2022-12-16T03:39:31;17.80;;;8.48;;
74624;SDS011;63131;52.298;8.056;2022-12-16T03:41:57;17.33;;;9.13;;
74624;SDS011;63131;52.298;8.056;2022-12-16T03:44:23;19.45;;;9.88;;
74624;SDS011;63131;52.298;8.056;2022-12-16T03:46:49;17.77;;;9.10;;
74624;SDS011;63131;52.298;8.056;2022-12-16T03:49:15;17.80;;;8.82;;
74624;SDS011;63131;52.298;8.056;2022-12-16T03:51:40;18.83;;;9.57;;
74624;SDS011;63131;52.298;8.056;2022-12-16T03:54:06;20.02;;;8.65;;
74624;SDS011;63131;52.298;8.056;2022-12-16T03:56:31;23.75;;;9.88;;
74624;SDS011;63131;52.298;8.056;2022-12-16T03:58:56;19.58;;;9.15;;
74624;SDS011;63131;52.298;8.056;2022-12-16T04:01:22;18.88;;;10.48;;
74624;SDS011;63131;52.298;8.056;2022-12-16T04:03:48;21.92;;;9.68;;
74624;SDS011;63131;52.298;8.056;2022-12-16T04:06:13;17.33;;;8.93;;
74624;SDS011;63131;52.298;8.056;2022-12-16T04:08:42;22.55;;;9.55;;
74624;SDS011;63131;52.298;8.056;2022-12-16T04:11:11;26.75;;;9.35;;
74624;SDS011;63131;52.298;8.056;2022-12-16T04:13:55;19.77;;;9.25;;
74624;SDS011;63131;52.298;8.056;2022-12-16T04:16:39;17.95;;;8.27;;
74624;SDS011;63131;52.298;8.056;2022-12-16T04:19:24;26.65;;;9.07;;
74624;SDS011;63131;52.298;8.056;2022-12-16T04:22:11;16.30;;;7.90;;
74624;SDS011;63131;52.298;8.056;2022-12-16T04:24:58;19.05;;;8.65;;
74624;SDS011;63131;52.298;8.056;2022-12-16T04:27:34;17.58;;;8.35;;
74624;SDS011;63131;52.298;8.056;2022-12-16T04:29:59;18.80;;;8.73;;
74624;SDS011;63131;52.298;8.056;2022-12-16T04:32:43;17.10;;;8.00;;
74624;SDS011;63131;52.298;8.056;2022-12-16T04:35:28;24.50;;;10.05;;
74624;SDS011;63131;52.298;8.056;2022-12-16T04:38:12;21.23;;;9.48;;
74624;SDS011;63131;52.298;8.056;2022-12-16T04:40:56;19.67;;;8.77;;
74624;SDS011;63131;52.298;8.056;2022-12-16T04:43:40;20.95;;;8.85;;
74624;SDS011;63131;52.298;8.056;2022-12-16T04:46:24;13.43;;;8.43;;
74624;SDS011;63131;52.298;8.056;2022-12-16T04:49:12;17.00;;;8.38;;
74624;SDS011;63131;52.298;8.056;2022-12-16T04:51:56;20.30;;;8.57;;
74624;SDS011;63131;52.298;8.056;2022-12-16T04:54:40;23.02;;;9.23;;
74624;SDS011;63131;52.298;8.056;2022-12-16T04:57:24;21.05;;;9.43;;
74624;SDS011;63131;52.298;8.056;2022-12-16T05:00:08;19.27;;;9.15;;
74624;SDS011;63131;52.298;8.056;2022-12-16T05:02:52;15.93;;;8.70;;
74624;SDS011;63131;52.298;8.056;2022-12-16T05:05:36;16.55;;;8.38;;
74624;SDS011;63131;52.298;8.056;2022-12-16T05:08:20;20.88;;;9.38;;
74624;SDS011;63131;52.298;8.056;2022-12-16T05:11:05;13.18;;;8.00;;
74624;SDS011;63131;52.298;8.056;2022-12-16T05:13:49;15.38;;;8.48;;
74624;SDS011;63131;52.298;8.056;2022-12-16T05:16:32;22.02;;;9.68;;
74624;SDS011;63131;52.298;8.056;2022-12-16T05:19:16;16.83;;;9.30;;
74624;SDS011;63131;52.298;8.056;2022-12-16T05:22:00;23.00;;;10.60;;
74624;SDS011;63131;52.298;8.056;2022-12-16T05:24:44;16.90;;;8.65;;
74624;SDS011;63131;52.298;8.056;2022-12-16T05:27:29;22.13;;;8.75;;
74624;SDS011;63131;52.298;8.056;2022-12-16T05:30:18;19.98;;;8.13;;
74624;SDS011;63131;52.298;8.056;2022-12-16T05:33:02;20.52;;;10.48;;
74624;SDS011;63131;52.298;8.056;2022-12-16T05:35:46;14.98;;;8.60;;
74624;SDS011;63131;52.298;8.056;2022-12-16T05:38:30;19.63;;;9.52;;
74624;SDS011;63131;52.298;8.056;2022-12-16T05:41:14;16.13;;;7.88;;
74624;SDS011;63131;52.298;8.056;2022-12-16T05:43:58;20.15;;;9.65;;
74624;SDS011;63131;52.298;8.056;2022-12-16T05:46:41;22.65;;;9.70;;
74624;SDS011;63131;52.298;8.056;2022-12-16T05:49:25;18.35;;;7.88;;
74624;SDS011;63131;52.298;8.056;2022-12-16T05:52:10;17.05;;;7.97;;
74624;SDS011;63131;52.298;8.056;2022-12-16T05:54:53;17.70;;;8.10;;
74624;SDS011;63131;52.298;8.056;2022-12-16T05:57:37;18.48;;;8.80;;
74624;SDS011;63131;52.298;8.056;2022-12-16T06:00:21;21.95;;;8.13;;
74624;SDS011;63131;52.298;8.056;2022-12-16T06:03:05;18.00;;;7.80;;
74624;SDS011;63131;52.298;8.056;2022-12-16T06:05:49;22.30;;;8.82;;
74624;SDS011;63131;52.298;8.056;2022-12-16T06:08:33;18.75;;;8.90;;
74624;SDS011;63131;52.298;8.056;2022-12-16T06:11:17;19.23;;;10.00;;
74624;SDS011;63131;52.298;8.056;2022-12-16T06:14:01;20.05;;;9.00;;
74624;SDS011;63131;52.298;8.056;2022-12-16T06:16:45;18.55;;;8.27;;
74624;SDS011;63131;52.298;8.056;2022-12-16T06:19:29;19.40;;;9.35;;
74624;SDS011;63131;52.298;8.056;2022-12-16T06:22:13;16.20;;;7.85;;
74624;SDS011;63131;52.298;8.056;2022-12-16T06:24:57;20.52;;;9.18;;
74624;SDS011;63131;52.298;8.056;2022-12-16T06:27:41;15.38;;;8.68;;
74624;SDS011;63131;52.298;8.056;2022-12-16T06:30:25;18.52;;;7.78;;
74624;SDS011;63131;52.298;8.056;2022-12-16T06:33:09;20.38;;;10.18;;
74624;SDS011;63131;52.298;8.056;2022-12-16T06:35:53;19.50;;;8.45;;
74624;SDS011;63131;52.298;8.056;2022-12-16T06:38:37;20.52;;;8.70;;
74624;SDS011;63131;52.298;8.056;2022-12-16T06:41:21;19.55;;;9.10;;
74624;SDS011;63131;52.298;8.056;2022-12-16T06:44:05;18.48;;;8.07;;
74624;SDS011;63131;52.298;8.056;2022-12-16T06:46:49;15.35;;;8.60;;
74624;SDS011;63131;52.298;8.056;2022-12-16T06:49:41;17.73;;;7.88;;
74624;SDS011;63131;52.298;8.056;2022-12-16T06:52:25;17.02;;;8.70;;
74624;SDS011;63131;52.298;8.056;2022-12-16T06:55:09;18.33;;;8.63;;
74624;SDS011;63131;52.298;8.056;2022-12-16T06:57:59;18.10;;;8.23;;
74624;SDS011;63131;52.298;8.056;2022-12-16T07:00:43;18.08;;;8.43;;
74624;SDS011;63131;52.298;8.056;2022-12-16T07:03:27;18.42;;;9.20;;
74624;SDS011;63131;52.298;8.056;2022-12-16T07:06:11;19.15;;;9.05;;
74624;SDS011;63131;52.298;8.056;2022-12-16T07:08:55;16.75;;;9.02;;
74624;SDS011;63131;52.298;8.056;2022-12-16T07:11:39;18.15;;;9.13;;
74624;SDS011;63131;52.298;8.056;2022-12-16T07:14:23;17.95;;;8.90;;
74624;SDS011;63131;52.298;8.056;2022-12-16T07:17:07;19.52;;;8.77;;
74624;SDS011;63131;52.298;8.056;2022-12-16T07:19:51;20.48;;;10.48;;
74624;SDS011;63131;52.298;8.056;2022-12-16T07:22:35;19.33;;;9.57;;
74624;SDS011;63131;52.298;8.056;2022-12-16T07:25:19;21.75;;;9.13;;
74624;SDS011;63131;52.298;8.056;2022-12-16T07:28:03;16.95;;;8.27;;
74624;SDS011;63131;52.298;8.056;2022-12-16T07:30:47;18.83;;;9.13;;
74624;SDS011;63131;52.298;8.056;2022-12-16T07:33:31;24.25;;;9.25;;
74624;SDS011;63131;52.298;8.056;2022-12-16T07:36:15;20.70;;;9.38;;
74624;SDS011;63131;52.298;8.056;2022-12-16T07:38:59;22.25;;;10.30;;
74624;SDS011;63131;52.298;8.056;2022-12-16T07:41:43;19.55;;;9.93;;
74624;SDS011;63131;52.298;8.056;2022-12-16T07:44:27;20.25;;;8.93;;
74624;SDS011;63131;52.298;8.056;2022-12-16T07:47:11;20.42;;;8.20;;
74624;SDS011;63131;52.298;8.056;2022-12-16T07:49:55;18.33;;;9.45;;
74624;SDS011;63131;52.298;8.056;2022-12-16T07:52:39;20.67;;;9.32;;
74624;SDS011;63131;52.298;8.056;2022-12-16T07:55:23;16.58;;;7.97;;
74624;SDS011;63131;52.298;8.056;2022-12-16T07:58:08;20.23;;;9.27;;
74624;SDS011;63131;52.298;8.056;2022-12-16T08:00:52;20.98;;;9.32;;
74624;SDS011;63131;52.298;8.056;2022-12-16T08:03:36;20.10;;;9.70;;
74624;SDS011;63131;52.298;8.056;2022-12-16T08:06:20;22.25;;;10.25;;
74624;SDS011;63131;52.298;8.056;2022-12-16T08:09:04;21.05;;;9.30;;
74624;SDS011;63131;52.298;8.056;2022-12-16T08:11:48;28.35;;;13.50;;
74624;SDS011;63131;52.298;8.056;2022-12-16T08:14:32;20.00;;;10.35;;
74624;SDS011;63131;52.298;8.056;2022-12-16T08:17:16;23.15;;;9.57;;
74624;SDS011;63131;52.298;8.056;2022-12-16T08:20:00;18.98;;;9.27;;
74624;SDS011;63131;52.298;8.056;2022-12-16T08:22:44;19.52;;;11.48;;
74624;SDS011;63131;52.298;8.056;2022-12-16T08:25:28;19.50;;;9.02;;
74624;SDS011;63131;52.298;8.056;2022-12-16T08:28:12;21.83;;;12.50;;
74624;SDS011;63131;52.298;8.056;2022-12-16T08:30:56;24.58;;;13.23;;
74624;SDS011;63131;52.298;8.056;2022-12-16T08:33:40;28.80;;;11.70;;
74624;SDS011;63131;52.298;8.056;2022-12-16T08:36:24;23.77;;;11.13;;
74624;SDS011;63131;52.298;8.056;2022-12-16T08:39:08;22.92;;;12.40;;
74624;SDS011;63131;52.298;8.056;2022-12-16T08:41:52;25.63;;;12.68;;
74624;SDS011;63131;52.298;8.056;2022-12-16T08:44:36;22.25;;;11.40;;
74624;SDS011;63131;52.298;8.056;2022-12-16T08:47:20;25.33;;;12.48;;
74624;SDS011;63131;52.298;8.056;2022-12-16T08:50:04;29.98;;;12.80;;
74624;SDS011;63131;52.298;8.056;2022-12-16T08:52:49;23.77;;;11.52;;
74624;SDS011;63131;52.298;8.056;2022-12-16T08:55:33;22.10;;;10.40;;
74624;SDS011;63131;52.298;8.056;2022-12-16T08:58:17;26.67;;;12.93;;
74624;SDS011;63131;52.298;8.056;2022-12-16T09:01:01;24.10;;;12.07;;
74624;SDS011;63131;52.298;8.056;2022-12-16T09:03:45;26.63;;;11.98;;
74624;SDS011;63131;52.298;8.056;2022-12-16T09:06:29;20.92;;;10.82;;
74624;SDS011;63131;52.298;8.056;2022-12-16T09:09:13;27.65;;;11.10;;
74624;SDS011;63131;52.298;8.056;2022-12-16T09:11:57;23.25;;;12.02;;
74624;SDS011;63131;52.298;8.056;2022-12-16T09:14:41;24.35;;;13.15;;
74624;SDS011;63131;52.298;8.056;2022-12-16T09:17:25;29.75;;;14.20;;
74624;SDS011;63131;52.298;8.056;2022-12-16T09:20:09;23.98;;;10.18;;
74624;SDS011;63131;52.298;8.056;2022-12-16T09:22:53;20.65;;;10.75;;
74624;SDS011;63131;52.298;8.056;2022-12-16T09:25:37;23.58;;;12.57;;
74624;SDS011;63131;52.298;8.056;2022-12-16T09:28:21;21.20;;;10.95;;
74624;SDS011;63131;52.298;8.056;2022-12-16T09:31:05;24.90;;;11.30;;
74624;SDS011;63131;52.298;8.056;2022-12-16T09:33:49;22.60;;;11.48;;
74624;SDS011;63131;52.298;8.056;2022-12-16T09:36:33;21.42;;;10.13;;
74624;SDS011;63131;52.298;8.056;2022-12-16T09:39:17;22.95;;;11.68;;
74624;SDS011;63131;52.298;8.056;2022-12-16T09:42:08;23.40;;;10.27;;
74624;SDS011;63131;52.298;8.056;2022-12-16T09:50:39;22.65;;;10.88;;
74624;SDS011;63131;52.298;8.056;2022-12-16T09:53:25;24.10;;;11.85;;
74624;SDS011;63131;52.298;8.056;2022-12-16T09:56:14;24.92;;;12.05;;
74624;SDS011;63131;52.298;8.056;2022-12-16T09:59:01;21.00;;;10.25;;
74624;SDS011;63131;52.298;8.056;2022-12-16T10:01:48;24.83;;;11.75;;
74624;SDS011;63131;52.298;8.056;2022-12-16T10:04:32;21.83;;;11.77;;
74624;SDS011;63131;52.298;8.056;2022-12-16T10:07:20;24.15;;;10.57;;
74624;SDS011;63131;52.298;8.056;2022-12-16T10:10:51;23.98;;;10.82;;
74624;SDS011;63131;52.298;8.056;2022-12-16T10:22:46;19.77;;;10.57;;
74624;SDS011;63131;52.298;8.056;2022-12-16T10:25:43;24.08;;;12.32;;
74624;SDS011;63131;52.298;8.056;2022-12-16T10:31:28;22.38;;;10.48;;
74624;SDS011;63131;52.298;8.056;2022-12-16T10:34:33;25.30;;;11.48;;
74624;SDS011;63131;52.298;8.056;2022-12-16T10:37:21;22.42;;;11.20;;
74624;SDS011;63131;52.298;8.056;2022-12-16T10:40:26;19.58;;;11.07;;
74624;SDS011;63131;52.298;8.056;2022-12-16T10:46:17;22.05;;;11.38;;
74624;SDS011;63131;52.298;8.056;2022-12-16T10:49:03;23.25;;;9.73;;
74624;SDS011;63131;52.298;8.056;2022-12-16T10:51:47;24.45;;;10.45;;
74624;SDS011;63131;52.298;8.056;2022-12-16T10:54:38;21.83;;;10.93;;
74624;SDS011;63131;52.298;8.056;2022-12-16T11:00:18;19.20;;;10.05;;
74624;SDS011;63131;52.298;8.056;2022-12-16T11:03:15;19.95;;;10.32;;
74624;SDS011;63131;52.298;8.056;2022-12-16T11:06:07;23.00;;;11.38;;
74624;SDS011;63131;52.298;8.056;2022-12-16T11:08:51;22.20;;;10.02;;
74624;SDS011;63131;52.298;8.056;2022-12-16T11:11:35;22.63;;;11.40;;
74624;SDS011;63131;52.298;8.056;2022-12-16T11:14:24;19.25;;;9.80;;
74624;SDS011;63131;52.298;8.056;2022-12-16T11:17:09;25.20;;;12.15;;
74624;SDS011;63131;52.298;8.056;2022-12-16T11:20:25;22.45;;;10.75;;
74624;SDS011;63131;52.298;8.056;2022-12-16T11:26:04;25.20;;;11.35;;
74624;SDS011;63131;52.298;8.056;2022-12-16T11:29:05;19.77;;;10.10;;
74624;SDS011;63131;52.298;8.056;2022-12-16T11:34:55;20.00;;;10.75;;
74624;SDS011;63131;52.298;8.056;2022-12-16T11:37:41;22.73;;;11.20;;
74624;SDS011;63131;52.298;8.056;2022-12-16T11:40:25;19.42;;;8.90;;
74624;SDS011;63131;52.298;8.056;2022-12-16T11:43:11;18.15;;;10.40;;
74624;SDS011;63131;52.298;8.056;2022-12-16T11:45:56;22.05;;;10.82;;
74624;SDS011;63131;52.298;8.056;2022-12-16T11:51:29;20.95;;;9.82;;
74624;SDS011;63131;52.298;8.056;2022-12-16T11:54:36;18.05;;;9.98;;
74624;SDS011;63131;52.298;8.056;2022-12-16T11:57:23;17.70;;;9.35;;
74624;SDS011;63131;52.298;8.056;2022-12-16T12:00:21;19.73;;;8.70;;
74624;SDS011;63131;52.298;8.056;2022-12-16T12:03:18;19.05;;;9.18;;
74624;SDS011;63131;52.298;8.056;2022-12-16T12:06:27;21.13;;;10.70;;
74624;SDS011;63131;52.298;8.056;2022-12-16T12:09:37;19.50;;;9.00;;
74624;SDS011;63131;52.298;8.056;2022-12-16T12:15:38;19.88;;;8.98;;
74624;SDS011;63131;52.298;8.056;2022-12-16T12:21:36;23.00;;;10.50;;
74624;SDS011;63131;52.298;8.056;2022-12-16T12:24:45;20.98;;;10.98;;
74624;SDS011;63131;52.298;8.056;2022-12-16T12:27:34;23.30;;;11.38;;
74624;SDS011;63131;52.298;8.056;2022-12-16T12:30:20;16.42;;;8.80;;
74624;SDS011;63131;52.298;8.056;2022-12-16T12:36:29;22.30;;;10.63;;
74624;SDS011;63131;52.298;8.056;2022-12-16T12:39:20;22.45;;;10.10;;
74624;SDS011;63131;52.298;8.056;2022-12-16T12:48:21;21.88;;;10.50;;
74624;SDS011;63131;52.298;8.056;2022-12-16T12:56:54;17.83;;;7.93;;
74624;SDS011;63131;52.298;8.056;2022-12-16T12:59:44;16.52;;;8.52;;
74624;SDS011;63131;52.298;8.056;2022-12-16T13:05:46;18.30;;;7.13;;
74624;SDS011;63131;52.298;8.056;2022-12-16T13:08:31;14.00;;;7.22;;
74624;SDS011;63131;52.298;8.056;2022-12-16T13:11:16;15.95;;;7.75;;
74624;SDS011;63131;52.298;8.056;2022-12-16T13:14:00;14.98;;;7.35;;
74624;SDS011;63131;52.298;8.056;2022-12-16T13:25:28;12.48;;;6.35;;
74624;SDS011;63131;52.298;8.056;2022-12-16T13:28:19;12.93;;;6.18;;
74624;SDS011;63131;52.298;8.056;2022-12-16T13:31:04;13.63;;;6.53;;
74624;SDS011;63131;52.298;8.056;2022-12-16T13:33:52;13.55;;;6.70;;
74624;SDS011;63131;52.298;8.056;2022-12-16T13:36:37;14.35;;;5.93;;
74624;SDS011;63131;52.298;8.056;2022-12-16T13:39:22;14.02;;;6.28;;
74624;SDS011;63131;52.298;8.056;2022-12-16T13:42:29;16.15;;;7.20;;
74624;SDS011;63131;52.298;8.056;2022-12-16T13:45:15;13.45;;;5.80;;
74624;SDS011;63131;52.298;8.056;2022-12-16T13:48:26;12.85;;;5.80;;
74624;SDS011;63131;52.298;8.056;2022-12-16T13:54:33;14.30;;;5.88;;
74624;SDS011;63131;52.298;8.056;2022-12-16T13:57:21;17.90;;;6.47;;
74624;SDS011;63131;52.298;8.056;2022-12-16T14:00:16;11.95;;;5.38;;
74624;SDS011;63131;52.298;8.056;2022-12-16T14:03:02;12.98;;;6.13;;
74624;SDS011;63131;52.298;8.056;2022-12-16T14:05:47;15.23;;;5.57;;
74624;SDS011;63131;52.298;8.056;2022-12-16T14:08:32;11.23;;;5.72;;
74624;SDS011;63131;52.298;8.056;2022-12-16T14:11:28;16.70;;;6.18;;
74624;SDS011;63131;52.298;8.056;2022-12-16T14:14:26;15.80;;;7.32;;
74624;SDS011;63131;52.298;8.056;2022-12-16T14:17:26;14.80;;;6.72;;
74624;SDS011;63131;52.298;8.056;2022-12-16T14:20:29;14.68;;;6.07;;
74624;SDS011;63131;52.298;8.056;2022-12-16T14:26:13;15.02;;;5.70;;
74624;SDS011;63131;52.298;8.056;2022-12-16T14:28:59;14.02;;;5.68;;
74624;SDS011;63131;52.298;8.056;2022-12-16T14:31:43;14.60;;;7.13;;
74624;SDS011;63131;52.298;8.056;2022-12-16T14:34:28;13.93;;;6.07;;
74624;SDS011;63131;52.298;8.056;2022-12-16T14:37:17;16.35;;;6.00;;
74624;SDS011;63131;52.298;8.056;2022-12-16T14:40:45;16.17;;;6.57;;
74624;SDS011;63131;52.298;8.056;2022-12-16T14:43:20;12.90;;;5.75;;
74624;SDS011;63131;52.298;8.056;2022-12-16T14:46:05;15.40;;;6.38;;
74624;SDS011;63131;52.298;8.056;2022-12-16T14:49:13;13.82;;;6.13;;
74624;SDS011;63131;52.298;8.056;2022-12-16T14:52:01;12.57;;;6.05;;
74624;SDS011;63131;52.298;8.056;2022-12-16T14:54:45;14.23;;;6.53;;
74624;SDS011;63131;52.298;8.056;2022-12-16T14:57:30;12.63;;;5.85;;
74624;SDS011;63131;52.298;8.056;2022-12-16T15:00:25;15.23;;;5.93;;
74624;SDS011;63131;52.298;8.056;2022-12-16T15:03:21;15.43;;;6.20;;
74624;SDS011;63131;52.298;8.056;2022-12-16T15:06:17;13.95;;;6.35;;
74624;SDS011;63131;52.298;8.056;2022-12-16T15:09:07;15.80;;;6.80;;
74624;SDS011;63131;52.298;8.056;2022-12-16T15:11:58;18.08;;;7.78;;
74624;SDS011;63131;52.298;8.056;2022-12-16T15:14:43;19.00;;;8.20;;
74624;SDS011;63131;52.298;8.056;2022-12-16T15:17:32;12.32;;;6.82;;
74624;SDS011;63131;52.298;8.056;2022-12-16T15:20:25;16.05;;;6.97;;
74624;SDS011;63131;52.298;8.056;2022-12-16T15:23:16;18.20;;;9.68;;
74624;SDS011;63131;52.298;8.056;2022-12-16T15:26:05;18.23;;;8.23;;
74624;SDS011;63131;52.298;8.056;2022-12-16T15:28:50;18.10;;;8.45;;
74624;SDS011;63131;52.298;8.056;2022-12-16T15:31:35;18.85;;;10.48;;
74624;SDS011;63131;52.298;8.056;2022-12-16T15:34:26;20.23;;;9.95;;
74624;SDS011;63131;52.298;8.056;2022-12-16T15:37:23;17.70;;;8.13;;
74624;SDS011;63131;52.298;8.056;2022-12-16T15:40:19;19.48;;;10.15;;
74624;SDS011;63131;52.298;8.056;2022-12-16T15:43:30;21.42;;;9.23;;
74624;SDS011;63131;52.298;8.056;2022-12-16T15:46:25;17.73;;;8.27;;
74624;SDS011;63131;52.298;8.056;2022-12-16T15:55:24;18.05;;;8.35;;
74624;SDS011;63131;52.298;8.056;2022-12-16T15:58:12;19.48;;;8.98;;
74624;SDS011;63131;52.298;8.056;2022-12-16T16:01:13;20.65;;;9.30;;
74624;SDS011;63131;52.298;8.056;2022-12-16T16:03:58;19.98;;;9.10;;
74624;SDS011;63131;52.298;8.056;2022-12-16T16:06:52;17.10;;;9.18;;
74624;SDS011;63131;52.298;8.056;2022-12-16T16:09:37;19.77;;;8.80;;
74624;SDS011;63131;52.298;8.056;2022-12-16T16:12:22;19.83;;;9.95;;
74624;SDS011;63131;52.298;8.056;2022-12-16T16:15:09;21.55;;;9.30;;
74624;SDS011;63131;52.298;8.056;2022-12-16T16:17:57;43.38;;;19.67;;
74624;SDS011;63131;52.298;8.056;2022-12-16T16:20:52;27.05;;;14.90;;
74624;SDS011;63131;52.298;8.056;2022-12-16T16:23:36;31.65;;;14.65;;
74624;SDS011;63131;52.298;8.056;2022-12-16T16:26:20;23.95;;;11.52;;
74624;SDS011;63131;52.298;8.056;2022-12-16T16:29:05;22.75;;;11.25;;
74624;SDS011;63131;52.298;8.056;2022-12-16T16:32:03;19.92;;;9.52;;
74624;SDS011;63131;52.298;8.056;2022-12-16T16:34:47;22.92;;;10.75;;
74624;SDS011;63131;52.298;8.056;2022-12-16T16:37:31;24.92;;;10.82;;
74624;SDS011;63131;52.298;8.056;2022-12-16T16:40:32;21.88;;;11.65;;
74624;SDS011;63131;52.298;8.056;2022-12-16T16:43:18;24.65;;;10.77;;
74624;SDS011;63131;52.298;8.056;2022-12-16T16:46:04;23.25;;;12.25;;
74624;SDS011;63131;52.298;8.056;2022-12-16T16:48:57;24.40;;;12.10;;
74624;SDS011;63131;52.298;8.056;2022-12-16T16:51:42;27.98;;;13.00;;
74624;SDS011;63131;52.298;8.056;2022-12-16T16:54:26;24.17;;;11.63;;
74624;SDS011;63131;52.298;8.056;2022-12-16T16:57:10;25.42;;;12.60;;
74624;SDS011;63131;52.298;8.056;2022-12-16T16:59:54;22.02;;;11.68;;
74624;SDS011;63131;52.298;8.056;2022-12-16T17:02:58;21.63;;;11.88;;
74624;SDS011;63131;52.298;8.056;2022-12-16T17:05:41;21.63;;;10.48;;
74624;SDS011;63131;52.298;8.056;2022-12-16T17:08:25;19.92;;;11.93;;
74624;SDS011;63131;52.298;8.056;2022-12-16T17:11:15;24.98;;;11.10;;
74624;SDS011;63131;52.298;8.056;2022-12-16T17:14:00;20.23;;;10.48;;
74624;SDS011;63131;52.298;8.056;2022-12-16T17:16:44;22.35;;;9.57;;
74624;SDS011;63131;52.298;8.056;2022-12-16T17:19:28;18.30;;;9.45;;
74624;SDS011;63131;52.298;8.056;2022-12-16T17:22:12;23.95;;;10.65;;
74624;SDS011;63131;52.298;8.056;2022-12-16T17:24:56;16.20;;;9.23;;
74624;SDS011;63131;52.298;8.056;2022-12-16T17:27:42;22.00;;;9.90;;
74624;SDS011;63131;52.298;8.056;2022-12-16T17:30:27;21.98;;;9.38;;
74624;SDS011;63131;52.298;8.056;2022-12-16T17:33:11;23.70;;;11.73;;
74624;SDS011;63131;52.298;8.056;2022-12-16T17:35:55;22.80;;;11.10;;
74624;SDS011;63131;52.298;8.056;2022-12-16T17:38:40;26.17;;;12.95;;
74624;SDS011;63131;52.298;8.056;2022-12-16T17:41:28;23.10;;;10.00;;
74624;SDS011;63131;52.298;8.056;2022-12-16T17:44:13;24.35;;;10.20;;
74624;SDS011;63131;52.298;8.056;2022-12-16T17:46:57;30.17;;;13.73;;